Pagrindinis puslapis
METAR-TAF:

METAR-TAF

Oro uostai :

Šendženas, Kinija

platuma: 22-33N, ilguma: 114-06E, Aukštis: 18 m

Dabartinis oras

Ataskaita buvo paskelbta 54 minutes, ne 23:00 UTC
Vėjas 8 kt iš Šiaurės
Temperatūra 17°C
Drėgmė 94%
Slėgis 1014 hPa
Matomumas: 3000 m
Apsiniaukę ne aukštis 500 ft
rūkana

METAR: ZGSZ 302300Z 36004MPS 3000 BR OVC005 17/16 Q1014 BECMG AT0030 SCT005 BKN040

Laikas: 07:54 (23:54 UTC)

Prognozė

Ataskaita buvo paskelbta 2 valandos ir 30 minutes, ne 21:24 UTC
Prognozė galioja nuo 31 metu 00 UTC su 31 metu 24 UTC
Vėjas 8 kt iš Rytų
Matomumas: 5000 m
Išsisklaidę debesys ne aukštis 1000 ft
Su prošvaistėmis ne aukštis 4000 ft
rūkana
Tapsmas
nuo 31 metu 03 UTC su 31 metu 04 UTC
Vėjas 8 kt iš Pietų
Laikinai
nuo 31 metu 04 UTC su 31 metu 10 UTC
Matomumas: 2500 m
lietus
Tapsmas
nuo 31 metu 10 UTC su 31 metu 11 UTC
Vėjas 10 kt iš Šiaurės/Šiaurės Vakarų

TAF: ZGSZ 302124Z 3100/3124 10004MPS 5000 BR SCT010 BKN040 TX23/3106Z TN17/3122Z BECMG 3103/3104 18004MPS TEMPO 3104/3110 2500 RA BECMG 3110/3111 33005MPS

Orai ataskaitas ir orų prognozės (METAR, TAF).

turimą stotys yra geltonos ir raudonos taškus žemėlapyje.

Perkelti pele per norėdami pamatyti stoties vardą.

Tada spustelėkite, norėdami matyti oro stebėjimo ir prognozės.

Norėdami pakeisti žemėlapį: spustelėkite ant žalios mygtukų su juodo kryžiaus žemyn,; žalią mygtuką su brūkšneliu, jei norite nutolinti; arba žalių rodyklių gretimoms žemėlapius.


METAR-TAF: